sensor_id;sensor_type;location;lat;lon;timestamp;temperature;humidity
23089;DHT22;11713;48.506;8.966;2022-07-17T00:01:13;16.60;99.90
23089;DHT22;11713;48.506;8.966;2022-07-17T00:03:39;16.50;99.90
23089;DHT22;11713;48.506;8.966;2022-07-17T00:06:05;16.50;99.90
23089;DHT22;11713;48.506;8.966;2022-07-17T00:08:31;16.40;99.90
23089;DHT22;11713;48.506;8.966;2022-07-17T00:10:57;16.40;99.90
23089;DHT22;11713;48.506;8.966;2022-07-17T00:13:24;16.40;99.90
23089;DHT22;11713;48.506;8.966;2022-07-17T00:15:50;16.40;99.90
23089;DHT22;11713;48.506;8.966;2022-07-17T00:18:16;16.30;99.90
23089;DHT22;11713;48.506;8.966;2022-07-17T00:20:42;16.30;99.90
23089;DHT22;11713;48.506;8.966;2022-07-17T00:23:10;16.20;99.90
23089;DHT22;11713;48.506;8.966;2022-07-17T00:25:36;16.20;99.90
23089;DHT22;11713;48.506;8.966;2022-07-17T00:28:03;16.10;99.90
23089;DHT22;11713;48.506;8.966;2022-07-17T00:30:29;16.00;99.90
23089;DHT22;11713;48.506;8.966;2022-07-17T00:32:55;16.00;99.90
23089;DHT22;11713;48.506;8.966;2022-07-17T00:35:21;15.90;99.90
23089;DHT22;11713;48.506;8.966;2022-07-17T00:37:49;15.90;99.90
23089;DHT22;11713;48.506;8.966;2022-07-17T00:40:19;15.90;99.90
23089;DHT22;11713;48.506;8.966;2022-07-17T00:42:45;15.90;99.90
23089;DHT22;11713;48.506;8.966;2022-07-17T00:45:12;16.00;99.90
23089;DHT22;11713;48.506;8.966;2022-07-17T00:47:58;16.00;99.90
23089;DHT22;11713;48.506;8.966;2022-07-17T00:50:32;15.90;99.90
23089;DHT22;11713;48.506;8.966;2022-07-17T00:52:58;15.90;99.90
23089;DHT22;11713;48.506;8.966;2022-07-17T00:55:24;15.80;99.90
23089;DHT22;11713;48.506;8.966;2022-07-17T00:57:51;15.70;99.90
23089;DHT22;11713;48.506;8.966;2022-07-17T01:00:18;15.60;99.90
23089;DHT22;11713;48.506;8.966;2022-07-17T01:02:48;15.50;99.90
23089;DHT22;11713;48.506;8.966;2022-07-17T01:05:15;15.50;99.90
23089;DHT22;11713;48.506;8.966;2022-07-17T01:07:41;15.40;99.90
23089;DHT22;11713;48.506;8.966;2022-07-17T01:10:08;15.40;99.90
23089;DHT22;11713;48.506;8.966;2022-07-17T01:12:34;15.40;99.90
23089;DHT22;11713;48.506;8.966;2022-07-17T01:15:00;15.30;99.90
23089;DHT22;11713;48.506;8.966;2022-07-17T01:17:27;15.40;99.90
23089;DHT22;11713;48.506;8.966;2022-07-17T01:19:53;15.30;99.90
23089;DHT22;11713;48.506;8.966;2022-07-17T01:22:19;15.30;99.90
23089;DHT22;11713;48.506;8.966;2022-07-17T01:24:45;15.30;99.90
23089;DHT22;11713;48.506;8.966;2022-07-17T01:27:11;15.20;99.90
23089;DHT22;11713;48.506;8.966;2022-07-17T01:29:38;15.10;99.90
23089;DHT22;11713;48.506;8.966;2022-07-17T01:32:04;15.10;99.90
23089;DHT22;11713;48.506;8.966;2022-07-17T01:34:30;15.10;99.90
23089;DHT22;11713;48.506;8.966;2022-07-17T01:36:56;15.10;99.90
23089;DHT22;11713;48.506;8.966;2022-07-17T01:39:22;15.00;99.90
23089;DHT22;11713;48.506;8.966;2022-07-17T01:42:09;14.90;99.90
23089;DHT22;11713;48.506;8.966;2022-07-17T01:44:35;14.90;99.90
23089;DHT22;11713;48.506;8.966;2022-07-17T01:47:01;14.70;99.90
23089;DHT22;11713;48.506;8.966;2022-07-17T01:49:26;14.70;99.90
23089;DHT22;11713;48.506;8.966;2022-07-17T01:51:52;14.60;99.90
23089;DHT22;11713;48.506;8.966;2022-07-17T01:54:18;14.60;99.90
23089;DHT22;11713;48.506;8.966;2022-07-17T01:56:44;14.60;99.90
23089;DHT22;11713;48.506;8.966;2022-07-17T01:59:10;14.50;99.90
23089;DHT22;11713;48.506;8.966;2022-07-17T02:01:37;14.50;99.90
23089;DHT22;11713;48.506;8.966;2022-07-17T02:04:03;14.50;99.90
23089;DHT22;11713;48.506;8.966;2022-07-17T02:06:29;14.50;99.90
23089;DHT22;11713;48.506;8.966;2022-07-17T02:08:54;14.50;99.90
23089;DHT22;11713;48.506;8.966;2022-07-17T02:11:20;14.50;99.90
23089;DHT22;11713;48.506;8.966;2022-07-17T02:13:46;14.50;99.90
23089;DHT22;11713;48.506;8.966;2022-07-17T02:16:12;14.50;99.90
23089;DHT22;11713;48.506;8.966;2022-07-17T02:18:38;14.40;99.90
23089;DHT22;11713;48.506;8.966;2022-07-17T02:21:04;14.40;99.90
23089;DHT22;11713;48.506;8.966;2022-07-17T02:23:30;14.40;99.90
23089;DHT22;11713;48.506;8.966;2022-07-17T02:25:55;14.40;99.90
23089;DHT22;11713;48.506;8.966;2022-07-17T02:28:21;14.30;99.90
23089;DHT22;11713;48.506;8.966;2022-07-17T02:30:47;14.30;99.90
23089;DHT22;11713;48.506;8.966;2022-07-17T02:33:13;14.30;99.90
23089;DHT22;11713;48.506;8.966;2022-07-17T02:35:39;14.30;99.90
23089;DHT22;11713;48.506;8.966;2022-07-17T02:38:05;14.30;99.90
23089;DHT22;11713;48.506;8.966;2022-07-17T02:40:31;14.30;99.90
23089;DHT22;11713;48.506;8.966;2022-07-17T02:42:57;14.40;99.90
23089;DHT22;11713;48.506;8.966;2022-07-17T02:45:23;14.40;99.90
23089;DHT22;11713;48.506;8.966;2022-07-17T02:47:52;14.30;99.90
23089;DHT22;11713;48.506;8.966;2022-07-17T02:50:19;14.20;99.90
23089;DHT22;11713;48.506;8.966;2022-07-17T02:52:45;14.20;99.90
23089;DHT22;11713;48.506;8.966;2022-07-17T02:55:11;14.10;99.90
23089;DHT22;11713;48.506;8.966;2022-07-17T02:57:37;14.00;99.90
23089;DHT22;11713;48.506;8.966;2022-07-17T03:00:06;14.10;99.90
23089;DHT22;11713;48.506;8.966;2022-07-17T03:02:32;14.10;99.90
23089;DHT22;11713;48.506;8.966;2022-07-17T03:04:58;14.10;99.90
23089;DHT22;11713;48.506;8.966;2022-07-17T03:07:23;14.10;99.90
23089;DHT22;11713;48.506;8.966;2022-07-17T03:09:50;14.20;99.90
23089;DHT22;11713;48.506;8.966;2022-07-17T03:12:15;14.20;99.90
23089;DHT22;11713;48.506;8.966;2022-07-17T03:14:41;14.20;99.90
23089;DHT22;11713;48.506;8.966;2022-07-17T03:17:08;14.10;99.90
23089;DHT22;11713;48.506;8.966;2022-07-17T03:19:35;14.00;99.90
23089;DHT22;11713;48.506;8.966;2022-07-17T03:22:01;13.90;99.90
23089;DHT22;11713;48.506;8.966;2022-07-17T03:24:27;13.80;99.90
23089;DHT22;11713;48.506;8.966;2022-07-17T03:26:53;13.80;99.90
23089;DHT22;11713;48.506;8.966;2022-07-17T03:29:19;13.70;99.90
23089;DHT22;11713;48.506;8.966;2022-07-17T03:31:48;13.60;99.90
23089;DHT22;11713;48.506;8.966;2022-07-17T03:34:14;13.60;99.90
23089;DHT22;11713;48.506;8.966;2022-07-17T03:36:40;13.50;99.90
23089;DHT22;11713;48.506;8.966;2022-07-17T03:39:06;13.50;99.90
23089;DHT22;11713;48.506;8.966;2022-07-17T03:41:32;13.50;99.90
23089;DHT22;11713;48.506;8.966;2022-07-17T03:43:58;13.50;99.90
23089;DHT22;11713;48.506;8.966;2022-07-17T03:46:24;13.50;99.90
23089;DHT22;11713;48.506;8.966;2022-07-17T03:48:50;13.50;99.90
23089;DHT22;11713;48.506;8.966;2022-07-17T03:51:15;13.50;99.90
23089;DHT22;11713;48.506;8.966;2022-07-17T03:53:41;13.50;99.90
23089;DHT22;11713;48.506;8.966;2022-07-17T03:56:07;13.50;99.90
23089;DHT22;11713;48.506;8.966;2022-07-17T03:58:33;13.50;99.90
23089;DHT22;11713;48.506;8.966;2022-07-17T04:01:00;13.50;99.90
23089;DHT22;11713;48.506;8.966;2022-07-17T04:03:26;13.40;99.90
23089;DHT22;11713;48.506;8.966;2022-07-17T04:05:52;13.40;99.90
23089;DHT22;11713;48.506;8.966;2022-07-17T04:08:18;13.40;99.90
23089;DHT22;11713;48.506;8.966;2022-07-17T04:10:45;13.30;99.90
23089;DHT22;11713;48.506;8.966;2022-07-17T04:13:11;13.30;99.90
23089;DHT22;11713;48.506;8.966;2022-07-17T04:15:37;13.30;99.90
23089;DHT22;11713;48.506;8.966;2022-07-17T04:18:15;13.30;99.90
23089;DHT22;11713;48.506;8.966;2022-07-17T04:20:41;13.30;99.90
23089;DHT22;11713;48.506;8.966;2022-07-17T04:23:07;13.30;99.90
23089;DHT22;11713;48.506;8.966;2022-07-17T04:25:33;13.30;99.90
23089;DHT22;11713;48.506;8.966;2022-07-17T04:27:58;13.40;99.90
23089;DHT22;11713;48.506;8.966;2022-07-17T04:30:24;13.50;99.90
23089;DHT22;11713;48.506;8.966;2022-07-17T04:32:50;13.50;99.90
23089;DHT22;11713;48.506;8.966;2022-07-17T04:35:16;13.60;99.90
23089;DHT22;11713;48.506;8.966;2022-07-17T04:37:42;13.60;99.90
23089;DHT22;11713;48.506;8.966;2022-07-17T04:40:10;13.70;99.90
23089;DHT22;11713;48.506;8.966;2022-07-17T04:42:36;13.70;99.90
23089;DHT22;11713;48.506;8.966;2022-07-17T04:45:02;13.70;99.90
23089;DHT22;11713;48.506;8.966;2022-07-17T04:47:28;13.80;99.90
23089;DHT22;11713;48.506;8.966;2022-07-17T04:49:54;13.90;99.90
23089;DHT22;11713;48.506;8.966;2022-07-17T04:52:20;13.90;99.90
23089;DHT22;11713;48.506;8.966;2022-07-17T04:54:46;13.90;99.90
23089;DHT22;11713;48.506;8.966;2022-07-17T04:57:11;13.90;99.90
23089;DHT22;11713;48.506;8.966;2022-07-17T04:59:37;14.00;99.90
23089;DHT22;11713;48.506;8.966;2022-07-17T05:02:03;14.00;99.90
23089;DHT22;11713;48.506;8.966;2022-07-17T05:04:29;14.10;99.90
23089;DHT22;11713;48.506;8.966;2022-07-17T05:06:55;14.10;99.90
23089;DHT22;11713;48.506;8.966;2022-07-17T05:09:21;14.10;99.90
23089;DHT22;11713;48.506;8.966;2022-07-17T05:11:47;14.00;99.90
23089;DHT22;11713;48.506;8.966;2022-07-17T05:14:13;14.10;99.90
23089;DHT22;11713;48.506;8.966;2022-07-17T05:16:39;14.20;99.90
23089;DHT22;11713;48.506;8.966;2022-07-17T05:19:05;14.30;99.90
23089;DHT22;11713;48.506;8.966;2022-07-17T05:21:31;14.30;99.90
23089;DHT22;11713;48.506;8.966;2022-07-17T05:23:57;14.40;99.90
23089;DHT22;11713;48.506;8.966;2022-07-17T05:26:24;14.40;99.90
23089;DHT22;11713;48.506;8.966;2022-07-17T05:28:50;14.50;99.90
23089;DHT22;11713;48.506;8.966;2022-07-17T05:31:16;14.60;99.90
23089;DHT22;11713;48.506;8.966;2022-07-17T05:33:42;14.70;99.90
23089;DHT22;11713;48.506;8.966;2022-07-17T05:36:08;14.80;99.90
23089;DHT22;11713;48.506;8.966;2022-07-17T05:38:34;14.80;99.90
23089;DHT22;11713;48.506;8.966;2022-07-17T05:41:00;15.00;99.90
23089;DHT22;11713;48.506;8.966;2022-07-17T05:43:26;15.10;99.90
23089;DHT22;11713;48.506;8.966;2022-07-17T05:45:56;15.20;99.90
23089;DHT22;11713;48.506;8.966;2022-07-17T05:48:23;15.40;99.90
23089;DHT22;11713;48.506;8.966;2022-07-17T05:50:49;15.50;99.90
23089;DHT22;11713;48.506;8.966;2022-07-17T05:53:15;15.70;99.90
23089;DHT22;11713;48.506;8.966;2022-07-17T05:55:41;15.80;99.90
23089;DHT22;11713;48.506;8.966;2022-07-17T05:58:07;15.90;99.90
23089;DHT22;11713;48.506;8.966;2022-07-17T06:00:33;16.00;99.90
23089;DHT22;11713;48.506;8.966;2022-07-17T06:02:59;16.20;99.90
23089;DHT22;11713;48.506;8.966;2022-07-17T06:05:25;16.30;99.90
23089;DHT22;11713;48.506;8.966;2022-07-17T06:07:54;16.40;99.90
23089;DHT22;11713;48.506;8.966;2022-07-17T06:10:20;16.50;99.90
23089;DHT22;11713;48.506;8.966;2022-07-17T06:12:46;16.60;99.90
23089;DHT22;11713;48.506;8.966;2022-07-17T06:15:12;16.80;99.90
23089;DHT22;11713;48.506;8.966;2022-07-17T06:17:38;16.90;99.90
23089;DHT22;11713;48.506;8.966;2022-07-17T06:20:05;17.10;99.90
23089;DHT22;11713;48.506;8.966;2022-07-17T06:22:31;17.30;99.90
23089;DHT22;11713;48.506;8.966;2022-07-17T06:24:57;17.50;99.90
23089;DHT22;11713;48.506;8.966;2022-07-17T06:27:23;17.70;99.90
23089;DHT22;11713;48.506;8.966;2022-07-17T06:29:49;17.80;99.90
23089;DHT22;11713;48.506;8.966;2022-07-17T06:32:15;18.00;99.90
23089;DHT22;11713;48.506;8.966;2022-07-17T06:34:42;18.20;99.90
23089;DHT22;11713;48.506;8.966;2022-07-17T06:37:08;18.20;99.90
23089;DHT22;11713;48.506;8.966;2022-07-17T06:39:34;18.50;99.90
23089;DHT22;11713;48.506;8.966;2022-07-17T06:42:00;18.70;99.90
23089;DHT22;11713;48.506;8.966;2022-07-17T06:44:26;19.00;99.90
23089;DHT22;11713;48.506;8.966;2022-07-17T06:46:52;19.20;99.90
23089;DHT22;11713;48.506;8.966;2022-07-17T06:49:18;19.40;99.90
23089;DHT22;11713;48.506;8.966;2022-07-17T06:51:43;19.60;99.90
23089;DHT22;11713;48.506;8.966;2022-07-17T06:54:12;19.70;99.90
23089;DHT22;11713;48.506;8.966;2022-07-17T06:56:38;19.90;99.90
23089;DHT22;11713;48.506;8.966;2022-07-17T06:59:05;20.10;99.90
23089;DHT22;11713;48.506;8.966;2022-07-17T07:01:36;20.20;99.90
23089;DHT22;11713;48.506;8.966;2022-07-17T07:04:03;20.40;99.90
23089;DHT22;11713;48.506;8.966;2022-07-17T07:06:30;20.40;99.90
23089;DHT22;11713;48.506;8.966;2022-07-17T07:08:56;20.50;99.90
23089;DHT22;11713;48.506;8.966;2022-07-17T07:11:23;20.70;99.90
23089;DHT22;11713;48.506;8.966;2022-07-17T07:13:49;20.90;99.90
23089;DHT22;11713;48.506;8.966;2022-07-17T07:16:15;21.00;99.90
23089;DHT22;11713;48.506;8.966;2022-07-17T07:18:41;21.20;99.90
23089;DHT22;11713;48.506;8.966;2022-07-17T07:21:07;21.30;99.90
23089;DHT22;11713;48.506;8.966;2022-07-17T07:23:34;21.40;99.90
23089;DHT22;11713;48.506;8.966;2022-07-17T07:26:00;21.40;99.90
23089;DHT22;11713;48.506;8.966;2022-07-17T07:28:26;21.60;99.90
23089;DHT22;11713;48.506;8.966;2022-07-17T07:30:52;21.70;99.90
23089;DHT22;11713;48.506;8.966;2022-07-17T07:33:18;22.00;99.90
23089;DHT22;11713;48.506;8.966;2022-07-17T07:35:47;22.10;99.90
23089;DHT22;11713;48.506;8.966;2022-07-17T07:38:15;22.20;99.90
23089;DHT22;11713;48.506;8.966;2022-07-17T07:40:42;22.20;99.90
23089;DHT22;11713;48.506;8.966;2022-07-17T07:43:08;22.30;99.90
23089;DHT22;11713;48.506;8.966;2022-07-17T07:45:34;22.40;99.90
23089;DHT22;11713;48.506;8.966;2022-07-17T07:48:00;22.60;99.90
23089;DHT22;11713;48.506;8.966;2022-07-17T07:50:27;22.60;99.90
23089;DHT22;11713;48.506;8.966;2022-07-17T07:52:57;22.80;99.90
23089;DHT22;11713;48.506;8.966;2022-07-17T07:55:33;22.90;99.90
23089;DHT22;11713;48.506;8.966;2022-07-17T08:00:51;23.10;99.60
23089;DHT22;11713;48.506;8.966;2022-07-17T08:03:17;23.30;99.20
23089;DHT22;11713;48.506;8.966;2022-07-17T08:05:45;23.50;98.80
23089;DHT22;11713;48.506;8.966;2022-07-17T08:08:12;23.60;98.10
23089;DHT22;11713;48.506;8.966;2022-07-17T08:10:38;23.80;98.60
23089;DHT22;11713;48.506;8.966;2022-07-17T08:13:04;23.90;97.80
23089;DHT22;11713;48.506;8.966;2022-07-17T08:15:39;24.00;98.90
23089;DHT22;11713;48.506;8.966;2022-07-17T08:18:12;24.00;97.80
23089;DHT22;11713;48.506;8.966;2022-07-17T08:20:38;24.20;97.20
23089;DHT22;11713;48.506;8.966;2022-07-17T08:23:04;24.40;96.60
23089;DHT22;11713;48.506;8.966;2022-07-17T08:25:31;24.50;96.60
23089;DHT22;11713;48.506;8.966;2022-07-17T08:27:57;24.70;97.30
23089;DHT22;11713;48.506;8.966;2022-07-17T08:30:23;24.60;97.70
23089;DHT22;11713;48.506;8.966;2022-07-17T08:32:49;24.70;97.80
23089;DHT22;11713;48.506;8.966;2022-07-17T08:35:15;24.70;97.20
23089;DHT22;11713;48.506;8.966;2022-07-17T08:37:49;25.00;97.10
23089;DHT22;11713;48.506;8.966;2022-07-17T08:40:27;25.20;96.10
23089;DHT22;11713;48.506;8.966;2022-07-17T08:42:54;25.40;95.50
23089;DHT22;11713;48.506;8.966;2022-07-17T08:45:22;25.50;94.00
23089;DHT22;11713;48.506;8.966;2022-07-17T08:47:57;25.70;94.70
23089;DHT22;11713;48.506;8.966;2022-07-17T08:50:26;25.80;94.50
23089;DHT22;11713;48.506;8.966;2022-07-17T08:52:53;25.90;95.00
23089;DHT22;11713;48.506;8.966;2022-07-17T08:55:20;26.10;94.10
23089;DHT22;11713;48.506;8.966;2022-07-17T09:01:04;26.50;94.00
23089;DHT22;11713;48.506;8.966;2022-07-17T09:03:30;26.80;93.10
23089;DHT22;11713;48.506;8.966;2022-07-17T09:05:59;26.90;92.30
23089;DHT22;11713;48.506;8.966;2022-07-17T09:08:26;27.00;91.80
23089;DHT22;11713;48.506;8.966;2022-07-17T09:10:55;27.20;92.40
23089;DHT22;11713;48.506;8.966;2022-07-17T09:13:27;27.40;91.80
23089;DHT22;11713;48.506;8.966;2022-07-17T09:16:17;27.40;90.80
23089;DHT22;11713;48.506;8.966;2022-07-17T09:18:48;27.50;90.60
23089;DHT22;11713;48.506;8.966;2022-07-17T09:21:26;27.50;90.50
23089;DHT22;11713;48.506;8.966;2022-07-17T09:24:02;27.50;90.80
23089;DHT22;11713;48.506;8.966;2022-07-17T09:26:30;27.60;90.00
23089;DHT22;11713;48.506;8.966;2022-07-17T09:28:56;27.70;89.90
23089;DHT22;11713;48.506;8.966;2022-07-17T09:31:30;27.80;90.70
23089;DHT22;11713;48.506;8.966;2022-07-17T09:34:05;28.00;90.30
23089;DHT22;11713;48.506;8.966;2022-07-17T09:37:11;28.20;89.00
23089;DHT22;11713;48.506;8.966;2022-07-17T09:39:38;28.30;88.10
23089;DHT22;11713;48.506;8.966;2022-07-17T09:42:09;28.10;87.60
23089;DHT22;11713;48.506;8.966;2022-07-17T09:44:36;27.50;86.20
23089;DHT22;11713;48.506;8.966;2022-07-17T09:47:02;27.60;87.80
23089;DHT22;11713;48.506;8.966;2022-07-17T09:49:28;27.60;87.50
23089;DHT22;11713;48.506;8.966;2022-07-17T09:51:55;27.80;86.10
23089;DHT22;11713;48.506;8.966;2022-07-17T09:54:23;28.10;87.00
23089;DHT22;11713;48.506;8.966;2022-07-17T09:56:58;28.10;85.50
23089;DHT22;11713;48.506;8.966;2022-07-17T09:59:26;28.30;85.80
23089;DHT22;11713;48.506;8.966;2022-07-17T10:01:59;28.60;83.40
23089;DHT22;11713;48.506;8.966;2022-07-17T10:04:27;28.70;81.80
23089;DHT22;11713;48.506;8.966;2022-07-17T10:06:54;28.80;80.70
23089;DHT22;11713;48.506;8.966;2022-07-17T10:09:21;29.00;81.50
23089;DHT22;11713;48.506;8.966;2022-07-17T10:11:49;28.90;80.90
23089;DHT22;11713;48.506;8.966;2022-07-17T10:14:16;28.80;80.30
23089;DHT22;11713;48.506;8.966;2022-07-17T10:16:44;28.70;82.00
23089;DHT22;11713;48.506;8.966;2022-07-17T10:19:16;28.90;80.90
23089;DHT22;11713;48.506;8.966;2022-07-17T10:22:07;29.10;80.40
23089;DHT22;11713;48.506;8.966;2022-07-17T10:24:50;29.20;79.60
23089;DHT22;11713;48.506;8.966;2022-07-17T10:27:28;29.50;76.40
23089;DHT22;11713;48.506;8.966;2022-07-17T10:30:10;29.60;77.40
23089;DHT22;11713;48.506;8.966;2022-07-17T10:32:38;29.80;77.30
23089;DHT22;11713;48.506;8.966;2022-07-17T10:38:17;29.80;73.30
23089;DHT22;11713;48.506;8.966;2022-07-17T10:40:44;29.80;73.20
23089;DHT22;11713;48.506;8.966;2022-07-17T10:43:16;29.90;71.80
23089;DHT22;11713;48.506;8.966;2022-07-17T10:45:45;29.60;70.10
23089;DHT22;11713;48.506;8.966;2022-07-17T10:48:13;29.60;70.40
23089;DHT22;11713;48.506;8.966;2022-07-17T10:50:46;29.70;69.10
23089;DHT22;11713;48.506;8.966;2022-07-17T10:55:46;29.90;70.30
23089;DHT22;11713;48.506;8.966;2022-07-17T11:01:29;30.30;65.00
23089;DHT22;11713;48.506;8.966;2022-07-17T11:03:57;30.20;65.60
23089;DHT22;11713;48.506;8.966;2022-07-17T11:06:29;30.40;64.80
23089;DHT22;11713;48.506;8.966;2022-07-17T11:09:05;30.60;66.10
23089;DHT22;11713;48.506;8.966;2022-07-17T11:11:51;30.40;71.50
23089;DHT22;11713;48.506;8.966;2022-07-17T11:14:21;30.60;69.10
23089;DHT22;11713;48.506;8.966;2022-07-17T11:21:51;31.00;64.90
23089;DHT22;11713;48.506;8.966;2022-07-17T11:24:18;31.10;64.10
23089;DHT22;11713;48.506;8.966;2022-07-17T11:26:44;31.00;59.40
23089;DHT22;11713;48.506;8.966;2022-07-17T11:29:11;31.00;58.50
23089;DHT22;11713;48.506;8.966;2022-07-17T11:31:37;31.30;60.80
23089;DHT22;11713;48.506;8.966;2022-07-17T11:34:06;31.40;61.60
23089;DHT22;11713;48.506;8.966;2022-07-17T11:36:40;31.00;61.80
23089;DHT22;11713;48.506;8.966;2022-07-17T11:39:09;31.20;62.10
23089;DHT22;11713;48.506;8.966;2022-07-17T11:44:11;31.60;59.10
23089;DHT22;11713;48.506;8.966;2022-07-17T11:46:39;31.60;58.70
23089;DHT22;11713;48.506;8.966;2022-07-17T11:49:05;31.50;58.90
23089;DHT22;11713;48.506;8.966;2022-07-17T11:51:54;31.20;58.90
23089;DHT22;11713;48.506;8.966;2022-07-17T11:54:20;31.40;60.40
23089;DHT22;11713;48.506;8.966;2022-07-17T11:56:57;31.60;59.50
23089;DHT22;11713;48.506;8.966;2022-07-17T11:59:30;31.50;60.30
23089;DHT22;11713;48.506;8.966;2022-07-17T12:01:56;31.50;61.90
23089;DHT22;11713;48.506;8.966;2022-07-17T12:04:22;31.40;57.80
23089;DHT22;11713;48.506;8.966;2022-07-17T12:07:02;31.60;58.00
23089;DHT22;11713;48.506;8.966;2022-07-17T12:09:33;31.70;57.80
23089;DHT22;11713;48.506;8.966;2022-07-17T12:12:02;31.50;55.60
23089;DHT22;11713;48.506;8.966;2022-07-17T12:14:29;31.60;57.40
23089;DHT22;11713;48.506;8.966;2022-07-17T12:17:03;31.90;57.50
23089;DHT22;11713;48.506;8.966;2022-07-17T12:19:29;32.10;57.30
23089;DHT22;11713;48.506;8.966;2022-07-17T12:22:04;31.50;54.70
23089;DHT22;11713;48.506;8.966;2022-07-17T12:24:31;31.20;53.50
23089;DHT22;11713;48.506;8.966;2022-07-17T12:27:00;31.50;54.30
23089;DHT22;11713;48.506;8.966;2022-07-17T12:29:27;31.40;56.90
23089;DHT22;11713;48.506;8.966;2022-07-17T12:32:08;31.40;55.10
23089;DHT22;11713;48.506;8.966;2022-07-17T12:34:41;31.30;52.00
23089;DHT22;11713;48.506;8.966;2022-07-17T12:37:14;31.50;54.00
23089;DHT22;11713;48.506;8.966;2022-07-17T12:39:40;31.60;55.60
23089;DHT22;11713;48.506;8.966;2022-07-17T12:42:06;31.60;54.40
23089;DHT22;11713;48.506;8.966;2022-07-17T12:44:33;31.60;53.20
23089;DHT22;11713;48.506;8.966;2022-07-17T12:46:59;31.90;55.30
23089;DHT22;11713;48.506;8.966;2022-07-17T12:49:25;32.00;53.80
23089;DHT22;11713;48.506;8.966;2022-07-17T12:51:51;32.10;56.50
23089;DHT22;11713;48.506;8.966;2022-07-17T12:54:17;32.50;54.40
23089;DHT22;11713;48.506;8.966;2022-07-17T12:56:43;32.80;54.70
23089;DHT22;11713;48.506;8.966;2022-07-17T12:59:09;32.60;54.20
23089;DHT22;11713;48.506;8.966;2022-07-17T13:01:35;32.30;51.90
23089;DHT22;11713;48.506;8.966;2022-07-17T13:04:01;32.10;52.10
23089;DHT22;11713;48.506;8.966;2022-07-17T13:06:27;32.20;53.60
23089;DHT22;11713;48.506;8.966;2022-07-17T13:08:53;32.60;53.60
23089;DHT22;11713;48.506;8.966;2022-07-17T13:11:19;32.50;53.70
23089;DHT22;11713;48.506;8.966;2022-07-17T13:13:45;32.60;53.90
23089;DHT22;11713;48.506;8.966;2022-07-17T13:16:12;32.60;53.20
23089;DHT22;11713;48.506;8.966;2022-07-17T13:18:39;32.80;48.90
23089;DHT22;11713;48.506;8.966;2022-07-17T13:21:05;33.00;49.30
23089;DHT22;11713;48.506;8.966;2022-07-17T13:23:32;33.30;52.70
23089;DHT22;11713;48.506;8.966;2022-07-17T13:26:00;33.40;52.20
23089;DHT22;11713;48.506;8.966;2022-07-17T13:28:26;33.60;52.30
23089;DHT22;11713;48.506;8.966;2022-07-17T13:31:06;33.80;51.20
23089;DHT22;11713;48.506;8.966;2022-07-17T13:33:32;34.10;50.40
23089;DHT22;11713;48.506;8.966;2022-07-17T13:35:58;34.20;49.30
23089;DHT22;11713;48.506;8.966;2022-07-17T13:38:24;34.20;48.20
23089;DHT22;11713;48.506;8.966;2022-07-17T13:40:49;34.50;50.10
23089;DHT22;11713;48.506;8.966;2022-07-17T13:43:16;34.40;48.20
23089;DHT22;11713;48.506;8.966;2022-07-17T13:45:42;34.30;49.30
23089;DHT22;11713;48.506;8.966;2022-07-17T13:48:08;34.30;51.00
23089;DHT22;11713;48.506;8.966;2022-07-17T13:50:35;34.60;50.70
23089;DHT22;11713;48.506;8.966;2022-07-17T13:53:05;34.70;51.10
23089;DHT22;11713;48.506;8.966;2022-07-17T13:55:31;34.80;50.50
23089;DHT22;11713;48.506;8.966;2022-07-17T13:57:57;34.80;50.20
23089;DHT22;11713;48.506;8.966;2022-07-17T14:00:22;34.80;50.50
23089;DHT22;11713;48.506;8.966;2022-07-17T14:02:48;35.00;48.30
23089;DHT22;11713;48.506;8.966;2022-07-17T14:05:14;34.80;50.80
23089;DHT22;11713;48.506;8.966;2022-07-17T14:07:43;34.70;52.10
23089;DHT22;11713;48.506;8.966;2022-07-17T14:10:10;34.70;52.30
23089;DHT22;11713;48.506;8.966;2022-07-17T14:12:36;34.80;52.60
23089;DHT22;11713;48.506;8.966;2022-07-17T14:15:03;35.10;54.00
23089;DHT22;11713;48.506;8.966;2022-07-17T14:17:30;34.70;56.00
23089;DHT22;11713;48.506;8.966;2022-07-17T14:19:57;34.60;56.40
23089;DHT22;11713;48.506;8.966;2022-07-17T14:22:23;34.80;55.40
23089;DHT22;11713;48.506;8.966;2022-07-17T14:24:48;34.90;55.60
23089;DHT22;11713;48.506;8.966;2022-07-17T14:27:14;34.80;54.50
23089;DHT22;11713;48.506;8.966;2022-07-17T14:29:40;34.10;57.10
23089;DHT22;11713;48.506;8.966;2022-07-17T14:32:06;34.30;55.20
23089;DHT22;11713;48.506;8.966;2022-07-17T14:34:32;34.30;55.50
23089;DHT22;11713;48.506;8.966;2022-07-17T14:36:59;34.60;54.20
23089;DHT22;11713;48.506;8.966;2022-07-17T14:39:25;34.70;54.10
23089;DHT22;11713;48.506;8.966;2022-07-17T14:41:51;34.80;53.00
23089;DHT22;11713;48.506;8.966;2022-07-17T14:44:17;34.80;52.90
23089;DHT22;11713;48.506;8.966;2022-07-17T14:46:53;34.50;52.80
23089;DHT22;11713;48.506;8.966;2022-07-17T14:49:19;34.30;53.30
23089;DHT22;11713;48.506;8.966;2022-07-17T14:51:56;33.90;53.20
23089;DHT22;11713;48.506;8.966;2022-07-17T14:54:22;33.90;54.00
23089;DHT22;11713;48.506;8.966;2022-07-17T14:56:48;33.80;54.20
23089;DHT22;11713;48.506;8.966;2022-07-17T14:59:14;34.10;54.70
23089;DHT22;11713;48.506;8.966;2022-07-17T15:01:40;33.70;55.40
23089;DHT22;11713;48.506;8.966;2022-07-17T15:04:07;33.70;55.20
23089;DHT22;11713;48.506;8.966;2022-07-17T15:06:39;33.90;53.50
23089;DHT22;11713;48.506;8.966;2022-07-17T15:09:07;33.90;52.90
23089;DHT22;11713;48.506;8.966;2022-07-17T15:11:33;34.00;53.60
23089;DHT22;11713;48.506;8.966;2022-07-17T15:14:01;33.90;54.00
23089;DHT22;11713;48.506;8.966;2022-07-17T15:16:27;34.10;53.30
23089;DHT22;11713;48.506;8.966;2022-07-17T15:18:53;34.10;53.60
23089;DHT22;11713;48.506;8.966;2022-07-17T15:21:19;34.00;54.90
23089;DHT22;11713;48.506;8.966;2022-07-17T15:23:54;34.10;54.40
23089;DHT22;11713;48.506;8.966;2022-07-17T15:26:28;34.00;55.90
23089;DHT22;11713;48.506;8.966;2022-07-17T15:29:04;34.10;56.70
23089;DHT22;11713;48.506;8.966;2022-07-17T15:31:31;34.00;55.30
23089;DHT22;11713;48.506;8.966;2022-07-17T15:33:57;33.90;55.00
23089;DHT22;11713;48.506;8.966;2022-07-17T15:36:33;33.90;56.40
23089;DHT22;11713;48.506;8.966;2022-07-17T15:39:09;33.60;56.80
23089;DHT22;11713;48.506;8.966;2022-07-17T15:41:35;33.40;56.90
23089;DHT22;11713;48.506;8.966;2022-07-17T15:44:03;33.30;56.90
23089;DHT22;11713;48.506;8.966;2022-07-17T15:46:32;33.00;57.40
23089;DHT22;11713;48.506;8.966;2022-07-17T15:49:02;32.80;57.50
23089;DHT22;11713;48.506;8.966;2022-07-17T15:51:38;32.80;59.30
23089;DHT22;11713;48.506;8.966;2022-07-17T15:54:14;32.80;58.50
23089;DHT22;11713;48.506;8.966;2022-07-17T15:56:44;32.80;58.10